Time;durP1;ratioP1;P1;durP2;ratioP2;P2;SDS_P1;SDS_P2;PMS_P1;PMS_P2;Temp;Humidity;BMP_temperature;BMP_pressure;BME280_temperature;BME280_humidity;BME280_pressure;Samples;Min_cycle;Max_cycle;Signal;HPM_P1;HPM_P2
2021/06/17 00:02:17;;;;;;;16.27;13.07;;;;;;;20.05;100.00;101148.66;4845126;29;20041;-76
2021/06/17 00:05:09;;;;;;;13.88;12.45;;;;;;;20.09;100.00;101146.75;4845801;29;20061;-75
2021/06/17 00:07:55;;;;;;;14.63;11.90;;;;;;;19.96;100.00;101145.59;4844946;29;20034;-75
2021/06/17 00:10:45;;;;;;;12.85;10.95;;;;;;;20.05;100.00;101146.00;4845904;29;20026;-76
2021/06/17 00:13:33;;;;;;;17.10;11.55;;;;;;;20.16;100.00;101148.16;4844993;29;20030;-76
2021/06/17 00:16:19;;;;;;;14.43;11.43;;;;;;;20.17;100.00;101148.09;4845401;29;20066;-76
2021/06/17 00:19:05;;;;;;;13.93;10.93;;;;;;;20.14;100.00;101156.25;4845313;29;20034;-75
2021/06/17 00:21:51;;;;;;;12.13;10.93;;;;;;;20.14;100.00;101153.59;4845068;29;20030;-76
2021/06/17 00:24:37;;;;;;;14.05;10.98;;;;;;;19.88;100.00;101156.63;4844754;29;20091;-76
2021/06/17 00:27:23;;;;;;;12.77;10.38;;;;;;;19.91;100.00;101155.59;4844810;29;20033;-76
2021/06/17 00:30:11;;;;;;;12.18;10.20;;;;;;;20.05;100.00;101153.16;4844559;29;20045;-76
2021/06/17 00:32:56;;;;;;;12.90;10.02;;;;;;;20.11;100.00;101150.19;4844568;29;20486;-76
2021/06/17 00:35:42;;;;;;;12.40;10.02;;;;;;;20.24;100.00;101156.63;4845047;29;20048;-76
2021/06/17 00:38:28;;;;;;;12.32;10.38;;;;;;;20.08;100.00;101151.19;4844471;29;20366;-76
2021/06/17 00:41:14;;;;;;;11.85;10.50;;;;;;;20.19;100.00;101148.03;4844833;29;20393;-75
2021/06/17 00:44:00;;;;;;;11.27;10.18;;;;;;;20.08;100.00;101155.63;4844587;29;20482;-75
2021/06/17 00:46:46;;;;;;;15.35;11.43;;;;;;;20.12;100.00;101157.22;4844709;29;20030;-75
2021/06/17 00:49:32;;;;;;;10.85;9.75;;;;;;;20.25;100.00;101153.88;4844483;29;20026;-75
2021/06/17 00:52:18;;;;;;;11.90;9.43;;;;;;;20.17;100.00;101149.91;4845037;29;20364;-75
2021/06/17 00:55:04;;;;;;;11.88;9.88;;;;;;;20.31;100.00;101147.41;4843902;29;20109;-75
2021/06/17 00:57:51;;;;;;;13.00;10.48;;;;;;;20.06;100.00;101154.88;4844359;29;20182;-75
2021/06/17 01:00:37;;;;;;;12.38;9.63;;;;;;;20.09;100.00;101155.59;4844733;29;20034;-75
2021/06/17 01:03:23;;;;;;;16.10;10.52;;;;;;;20.00;100.00;101149.81;4844016;29;20430;-75
2021/06/17 01:06:10;;;;;;;11.88;9.70;;;;;;;20.12;100.00;101146.59;4844282;29;20503;-75
2021/06/17 01:09:07;;;;;;;11.00;9.48;;;;;;;20.13;100.00;101143.84;4844592;29;20026;-77
2021/06/17 01:12:21;;;;;;;10.45;9.20;;;;;;;20.02;100.00;101142.66;4844159;29;20030;-76
2021/06/17 01:15:14;;;;;;;10.45;8.63;;;;;;;20.03;100.00;101141.69;4844534;29;20030;-76
2021/06/17 01:18:11;;;;;;;12.38;9.20;;;;;;;20.10;100.00;101140.50;4844648;29;20026;-76
2021/06/17 01:21:01;;;;;;;12.35;10.25;;;;;;;20.23;100.00;101153.13;4844385;29;20492;-76
2021/06/17 01:23:59;;;;;;;11.57;9.93;;;;;;;20.25;100.00;101145.06;4843909;29;20269;-76
2021/06/17 01:27:02;;;;;;;12.05;8.73;;;;;;;20.18;100.00;101147.19;4842542;29;20034;-75
2021/06/17 01:29:52;;;;;;;13.38;8.98;;;;;;;20.04;100.00;101149.63;4844471;29;20034;-75
2021/06/17 01:32:42;;;;;;;10.00;8.95;;;;;;;19.98;100.00;101143.72;4843136;29;20034;-75
2021/06/17 01:35:34;;;;;;;10.93;8.98;;;;;;;19.95;100.00;101134.13;4844574;29;20105;-76
2021/06/17 01:38:23;;;;;;;9.90;8.63;;;;;;;19.61;100.00;101131.34;4844365;29;20030;-76
2021/06/17 01:41:11;;;;;;;10.95;9.65;;;;;;;19.09;100.00;101148.84;4843874;29;20476;-76
2021/06/17 01:44:00;;;;;;;11.93;8.77;;;;;;;19.31;100.00;101145.22;4844783;29;20044;-75
2021/06/17 01:46:49;;;;;;;12.80;9.13;;;;;;;18.99;100.00;101147.53;4845005;29;20026;-75
2021/06/17 01:49:37;;;;;;;12.73;8.45;;;;;;;18.84;100.00;101152.66;4844529;29;20041;-76
2021/06/17 01:52:24;;;;;;;12.38;8.68;;;;;;;19.18;100.00;101144.91;4846860;29;20033;-76
2021/06/17 01:55:11;;;;;;;10.88;9.05;;;;;;;19.13;100.00;101155.72;4848060;29;20038;-76
2021/06/17 01:58:02;;;;;;;15.60;9.27;;;;;;;19.44;100.00;101147.25;4847705;29;20041;-76
2021/06/17 02:00:50;;;;;;;12.98;9.40;;;;;;;19.23;100.00;101148.22;4847218;29;20034;-76
2021/06/17 02:03:37;;;;;;;11.43;9.00;;;;;;;19.39;100.00;101154.56;4847761;29;20030;-76
2021/06/17 02:06:25;;;;;;;12.27;9.95;;;;;;;19.26;100.00;101152.56;4847168;29;20081;-76
2021/06/17 02:09:11;;;;;;;11.43;9.60;;;;;;;19.29;100.00;101161.22;4847696;29;20108;-76
2021/06/17 02:11:57;;;;;;;15.70;10.23;;;;;;;18.75;100.00;101163.69;4846292;29;20037;-75
2021/06/17 02:14:44;;;;;;;13.15;10.15;;;;;;;18.63;100.00;101172.19;4847157;29;20034;-76
2021/06/17 02:17:30;;;;;;;11.80;10.00;;;;;;;18.97;100.00;101170.63;4847264;29;20053;-76
2021/06/17 02:20:18;;;;;;;12.70;9.68;;;;;;;18.86;100.00;101164.09;4846724;29;20044;-75
2021/06/17 02:23:10;;;;;;;12.93;10.32;;;;;;;18.46;100.00;101167.63;4847630;29;20065;-75
2021/06/17 02:25:56;;;;;;;17.33;12.05;;;;;;;18.59;100.00;101170.59;4847002;29;20040;-75
2021/06/17 02:28:45;;;;;;;19.55;13.57;;;;;;;18.70;100.00;101166.53;4847274;29;20367;-76
2021/06/17 02:31:33;;;;;;;15.07;11.35;;;;;;;18.65;100.00;101163.22;4846732;29;20098;-76
2021/06/17 02:34:19;;;;;;;15.43;11.77;;;;;;;19.06;100.00;101167.56;4846858;29;20421;-76
2021/06/17 02:37:05;;;;;;;12.93;10.75;;;;;;;18.89;100.00;101163.97;4847121;29;20040;-76
2021/06/17 02:39:53;;;;;;;19.10;12.70;;;;;;;19.06;100.00;101161.41;4846797;29;20581;-76
2021/06/17 02:42:39;;;;;;;17.60;13.65;;;;;;;19.01;100.00;101174.88;4846471;29;20026;-76
2021/06/17 02:45:29;;;;;;;13.82;12.32;;;;;;;19.13;100.00;101170.81;4846657;29;20094;-76
2021/06/17 02:48:15;;;;;;;17.30;13.00;;;;;;;18.56;100.00;101160.09;4846759;29;20026;-76
2021/06/17 02:51:02;;;;;;;19.02;14.02;;;;;;;18.96;100.00;101168.03;4846483;29;20037;-76
2021/06/17 02:53:48;;;;;;;16.65;12.60;;;;;;;18.91;100.00;101164.75;4846347;29;20029;-75
2021/06/17 02:56:42;;;;;;;18.52;12.90;;;;;;;18.82;100.00;101160.69;4846484;29;20038;-75
2021/06/17 02:59:43;;;;;;;18.98;14.55;;;;;;;18.94;100.00;101175.22;4846971;29;20033;-75
2021/06/17 03:02:57;;;;;;;18.52;13.27;;;;;;;18.58;100.00;101171.53;4845185;29;20041;-75
2021/06/17 03:06:01;;;;;;;16.30;12.82;;;;;;;18.70;100.00;101182.47;4846054;29;20034;-75
2021/06/17 03:08:53;;;;;;;20.13;14.57;;;;;;;18.66;100.00;101183.53;4846253;29;20030;-74
2021/06/17 03:11:44;;;;;;;19.60;13.52;;;;;;;18.71;100.00;101178.03;4846358;29;20029;-76
2021/06/17 03:14:37;;;;;;;19.00;13.70;;;;;;;18.82;100.00;101170.47;4846124;29;20030;-76
2021/06/17 03:17:24;;;;;;;19.40;14.20;;;;;;;18.88;100.00;101178.16;4846306;29;20033;-75
2021/06/17 03:20:11;;;;;;;17.13;14.68;;;;;;;18.90;100.00;101176.31;4846042;29;20460;-75
2021/06/17 03:23:00;;;;;;;18.25;14.40;;;;;;;19.11;100.00;101173.56;4845665;29;20062;-76
2021/06/17 03:25:50;;;;;;;16.90;14.10;;;;;;;19.12;100.00;101174.41;4845986;29;20034;-75
2021/06/17 03:28:38;;;;;;;18.55;12.93;;;;;;;18.87;100.00;101187.91;4846430;29;20360;-75
2021/06/17 03:31:27;;;;;;;17.48;13.68;;;;;;;19.33;100.00;101188.53;4846008;29;20045;-75
2021/06/17 03:34:14;;;;;;;22.85;14.30;;;;;;;19.65;100.00;101183.44;4846113;29;20033;-76
2021/06/17 03:37:00;;;;;;;17.20;12.50;;;;;;;19.45;100.00;101183.50;4845370;29;20105;-76
2021/06/17 03:39:48;;;;;;;26.88;17.65;;;;;;;19.47;100.00;101184.31;4846153;29;20071;-76
2021/06/17 03:42:35;;;;;;;19.00;15.07;;;;;;;19.57;100.00;101188.25;4845638;29;20468;-76
2021/06/17 03:45:23;;;;;;;17.25;12.90;;;;;;;19.90;100.00;101186.69;4845579;29;20022;-76
2021/06/17 03:48:12;;;;;;;18.85;13.73;;;;;;;20.06;100.00;101184.13;4845611;29;20490;-75
2021/06/17 03:51:00;;;;;;;20.10;13.57;;;;;;;20.02;100.00;101187.88;4845395;29;20429;-75
2021/06/17 03:53:47;;;;;;;18.77;13.88;;;;;;;20.03;100.00;101187.78;4845479;29;20098;-75
2021/06/17 03:56:33;;;;;;;19.88;13.95;;;;;;;19.89;100.00;101187.59;4845261;29;20038;-75
2021/06/17 03:59:23;;;;;;;19.55;14.32;;;;;;;20.05;100.00;101195.72;4845870;29;20034;-75
2021/06/17 04:02:10;;;;;;;18.63;14.18;;;;;;;19.76;100.00;101206.88;4845061;29;20038;-75
2021/06/17 04:04:56;;;;;;;17.08;13.57;;;;;;;19.66;100.00;101206.47;4845278;29;20113;-75
2021/06/17 04:07:44;;;;;;;18.95;14.70;;;;;;;19.93;100.00;101213.09;4845133;29;20069;-75
2021/06/17 04:10:31;;;;;;;19.50;14.82;;;;;;;19.98;100.00;101208.44;4845229;29;20030;-76
2021/06/17 04:13:17;;;;;;;18.40;14.45;;;;;;;20.12;100.00;101213.97;4844629;29;20084;-75
2021/06/17 04:16:04;;;;;;;17.98;13.88;;;;;;;19.99;100.00;101207.50;4844615;29;20072;-75
2021/06/17 04:18:53;;;;;;;20.05;15.10;;;;;;;20.08;100.00;101211.50;4844825;29;20038;-75
2021/06/17 04:21:40;;;;;;;19.55;13.73;;;;;;;19.94;100.00;101213.97;4843999;29;20029;-74
2021/06/17 04:24:28;;;;;;;19.52;15.48;;;;;;;20.20;100.00;101214.47;4845040;29;20058;-75
2021/06/17 04:27:15;;;;;;;21.17;15.18;;;;;;;20.30;100.00;101217.53;4844555;29;20467;-76
2021/06/17 04:30:03;;;;;;;19.48;14.98;;;;;;;20.01;100.00;101228.72;4843965;29;20118;-76
2021/06/17 04:32:50;;;;;;;19.65;14.63;;;;;;;20.16;100.00;101222.66;4844349;29;20034;-76
2021/06/17 04:35:39;;;;;;;16.92;13.48;;;;;;;20.52;100.00;101212.88;4844277;29;20038;-75
2021/06/17 04:38:26;;;;;;;19.35;14.80;;;;;;;20.44;100.00;101220.38;4844582;29;20061;-76
2021/06/17 04:41:12;;;;;;;18.08;14.55;;;;;;;20.70;100.00;101217.28;4844568;29;20349;-75
2021/06/17 04:44:01;;;;;;;23.95;16.27;;;;;;;20.89;100.00;101224.22;4844170;29;20098;-76
2021/06/17 04:46:48;;;;;;;18.23;13.60;;;;;;;20.58;100.00;101218.72;4844733;29;20360;-76
2021/06/17 04:49:36;;;;;;;18.25;14.45;;;;;;;20.51;100.00;101229.78;4844145;29;20033;-76
2021/06/17 04:52:34;;;;;;;22.42;14.38;;;;;;;20.50;100.00;101230.72;4844860;29;20132;-75
2021/06/17 04:55:20;;;;;;;22.05;15.75;;;;;;;20.38;100.00;101237.53;4843827;29;20390;-75
2021/06/17 04:58:05;;;;;;;24.67;15.98;;;;;;;20.79;100.00;101243.44;4844591;29;20113;-76
2021/06/17 05:00:51;;;;;;;21.40;15.23;;;;;;;21.18;100.00;101231.59;4844582;29;20133;-76
2021/06/17 05:03:37;;;;;;;19.60;16.08;;;;;;;21.38;100.00;101227.88;4844625;29;20097;-75
2021/06/17 05:06:23;;;;;;;22.15;16.27;;;;;;;20.77;100.00;101224.84;4844693;29;20026;-77
2021/06/17 05:12:13;;;;;;;17.92;15.10;;;;;;;21.18;100.00;101228.06;4844383;29;20033;-75
2021/06/17 05:14:59;;;;;;;21.45;15.32;;;;;;;21.13;100.00;101222.97;4843981;29;20026;-76
2021/06/17 05:17:45;;;;;;;16.85;14.23;;;;;;;21.35;100.00;101223.59;4844184;29;20076;-76
2021/06/17 05:20:31;;;;;;;19.20;15.07;;;;;;;21.51;100.00;101224.47;4843784;29;20038;-76
2021/06/17 05:23:20;;;;;;;20.83;13.05;;;;;;;21.82;100.00;101221.84;4843918;29;20122;-76
2021/06/17 05:26:07;;;;;;;15.90;13.45;;;;;;;22.03;100.00;101225.13;4843861;29;20042;-76
2021/06/17 05:28:54;;;;;;;19.27;15.90;;;;;;;22.28;100.00;101222.78;4843728;29;20147;-76
2021/06/17 05:31:40;;;;;;;27.45;23.35;;;;;;;22.22;100.00;101217.81;4843738;29;20026;-76
2021/06/17 05:34:26;;;;;;;18.10;14.52;;;;;;;21.78;100.00;101230.97;4843977;29;20072;-76
2021/06/17 05:37:12;;;;;;;15.75;13.75;;;;;;;22.16;100.00;101228.81;4843948;29;20030;-76
2021/06/17 05:39:58;;;;;;;19.48;13.65;;;;;;;21.94;100.00;101234.50;4843572;29;20021;-76
2021/06/17 05:42:44;;;;;;;16.00;13.15;;;;;;;21.95;100.00;101235.38;4843356;29;20033;-76
2021/06/17 05:45:30;;;;;;;16.55;12.48;;;;;;;21.66;100.00;101242.28;4843586;29;20034;-75
2021/06/17 05:48:15;;;;;;;15.95;12.80;;;;;;;21.89;100.00;101251.72;4844139;29;20027;-75
2021/06/17 05:51:02;;;;;;;14.90;12.68;;;;;;;22.08;100.00;101258.63;4843403;29;20026;-75
2021/06/17 05:53:48;;;;;;;19.33;13.27;;;;;;;22.48;100.00;101252.78;4843650;29;20125;-75
2021/06/17 05:56:33;;;;;;;21.67;13.07;;;;;;;22.73;100.00;101254.84;4843448;29;20042;-75
2021/06/17 05:59:20;;;;;;;18.48;12.23;;;;;;;22.30;100.00;101264.47;4843289;29;20140;-76
2021/06/17 06:02:06;;;;;;;15.82;13.18;;;;;;;22.83;100.00;101264.06;4843265;29;20412;-76
2021/06/17 06:04:52;;;;;;;16.27;12.43;;;;;;;23.12;100.00;101264.03;4843889;29;20114;-76
2021/06/17 06:07:39;;;;;;;17.90;12.20;;;;;;;22.88;100.00;101267.31;4842708;29;20030;-75
2021/06/17 06:10:26;;;;;;;14.77;12.40;;;;;;;22.93;100.00;101266.09;4843621;29;20037;-76
2021/06/17 06:13:12;;;;;;;17.05;12.60;;;;;;;23.29;100.00;101258.56;4843419;29;20387;-75
2021/06/17 06:15:58;;;;;;;14.90;12.68;;;;;;;23.60;100.00;101252.19;4843947;29;20091;-76
2021/06/17 06:18:44;;;;;;;16.70;12.05;;;;;;;23.40;100.00;101257.91;4843386;29;20041;-74
2021/06/17 06:21:30;;;;;;;13.88;11.77;;;;;;;23.39;100.00;101254.34;4843310;29;20071;-76
2021/06/17 06:24:17;;;;;;;15.00;11.45;;;;;;;23.69;100.00;101248.91;4842579;29;20114;-75
2021/06/17 06:27:06;;;;;;;14.35;11.65;;;;;;;23.52;100.00;101242.91;4843491;29;20180;-76
2021/06/17 06:29:52;;;;;;;13.52;11.20;;;;;;;23.25;100.00;101250.81;4843736;29;20102;-76
2021/06/17 06:32:38;;;;;;;13.55;10.68;;;;;;;23.63;100.00;101248.44;4843195;29;20466;-76
2021/06/17 06:35:26;;;;;;;15.65;11.23;;;;;;;23.09;100.00;101266.03;4844164;29;20048;-76
2021/06/17 06:38:11;;;;;;;12.75;10.52;;;;;;;23.07;100.00;101254.59;4845597;29;20036;-76
2021/06/17 06:40:59;;;;;;;12.80;10.48;;;;;;;23.18;100.00;101257.44;4848175;29;20113;-76
2021/06/17 06:43:45;;;;;;;13.18;10.88;;;;;;;23.31;100.00;101259.31;4846829;29;20045;-76
2021/06/17 06:46:30;;;;;;;11.57;9.90;;;;;;;23.17;100.00;101264.63;4847349;29;20026;-76
2021/06/17 06:49:16;;;;;;;14.18;10.10;;;;;;;22.98;100.00;101266.69;4847032;29;20379;-76
2021/06/17 06:52:03;;;;;;;13.43;10.98;;;;;;;22.73;100.00;101282.44;4847430;29;20030;-76
2021/06/17 06:54:49;;;;;;;16.05;10.75;;;;;;;23.00;100.00;101283.50;4847323;29;20055;-76
2021/06/17 06:57:35;;;;;;;13.38;10.60;;;;;;;23.23;100.00;101290.16;4846825;29;20482;-76
2021/06/17 07:00:21;;;;;;;14.60;10.30;;;;;;;23.23;100.00;101285.66;4847180;29;20553;-76
2021/06/17 07:03:07;;;;;;;14.93;10.23;;;;;;;23.25;100.00;101281.09;4846578;29;20034;-76
2021/06/17 07:05:53;;;;;;;14.88;9.38;;;;;;;23.30;100.00;101287.03;4847020;29;20048;-76
2021/06/17 07:08:39;;;;;;;11.88;9.65;;;;;;;23.81;100.00;101287.41;4844889;29;20068;-75
2021/06/17 07:11:25;;;;;;;12.48;9.07;;;;;;;23.71;100.00;101287.13;4846999;29;20034;-75
2021/06/17 07:14:11;;;;;;;10.68;8.70;;;;;;;24.28;100.00;101298.66;4845241;29;20042;-76
2021/06/17 07:16:57;;;;;;;14.38;10.45;;;;;;;24.66;100.00;101300.59;4847093;29;20465;-76
2021/06/17 07:19:43;;;;;;;11.18;7.82;;;;;;;24.69;100.00;101300.38;4846153;29;20049;-76
2021/06/17 07:22:28;;;;;;;9.07;8.00;;;;;;;25.19;100.00;101305.88;4846518;29;20349;-76
2021/06/17 07:25:14;;;;;;;14.32;9.35;;;;;;;25.45;100.00;101309.47;4846244;29;20045;-75
2021/06/17 07:28:00;;;;;;;13.68;8.60;;;;;;;25.83;100.00;101318.34;4847125;29;20030;-76
2021/06/17 07:30:46;;;;;;;10.20;7.13;;;;;;;26.28;100.00;101310.56;4846686;29;20037;-75
2021/06/17 07:33:32;;;;;;;10.88;7.63;;;;;;;26.78;100.00;101306.88;4845675;29;20135;-76
2021/06/17 07:36:18;;;;;;;11.07;8.20;;;;;;;26.21;100.00;101311.16;4845320;29;20103;-76
2021/06/17 07:39:07;;;;;;;8.23;7.32;;;;;;;26.63;100.00;101297.25;4846129;29;20061;-76
2021/06/17 07:41:53;;;;;;;8.88;7.35;;;;;;;25.98;100.00;101294.00;4846593;29;20094;-77
2021/06/17 07:44:39;;;;;;;9.63;7.28;;;;;;;26.67;100.00;101290.66;4845787;29;20460;-75
2021/06/17 08:11:44;;;;;;;9.35;6.05;;;;;;;27.18;100.00;101306.41;4869034;23;20058;-76
2021/06/17 08:14:29;;;;;;;15.00;7.10;;;;;;;26.56;100.00;101310.25;4828448;29;20039;-77
2021/06/17 08:17:23;;;;;;;9.55;5.60;;;;;;;26.92;100.00;101310.22;4828528;29;20026;-77
2021/06/17 08:20:12;;;;;;;12.57;6.15;;;;;;;27.79;100.00;101307.00;4826522;29;20052;-76
2021/06/17 08:22:57;;;;;;;16.77;7.70;;;;;;;27.58;100.00;101302.34;4828006;29;20030;-75
2021/06/17 08:25:43;;;;;;;18.60;8.15;;;;;;;28.00;100.00;101303.50;4827855;29;20122;-77
2021/06/17 08:28:30;;;;;;;10.05;6.90;;;;;;;28.19;100.00;101309.13;4826045;29;20076;-76
2021/06/17 08:31:16;;;;;;;11.25;5.70;;;;;;;27.83;100.00;101305.81;4825701;29;20352;-75
2021/06/17 08:34:03;;;;;;;8.50;5.13;;;;;;;27.86;100.00;101295.69;4827908;29;20034;-75
2021/06/17 08:36:48;;;;;;;6.57;4.20;;;;;;;27.97;100.00;101297.50;4827468;29;20044;-77
2021/06/17 08:39:35;;;;;;;7.18;4.20;;;;;;;27.86;100.00;101298.38;4827426;29;20065;-77
2021/06/17 08:42:26;;;;;;;4.65;3.83;;;;;;;26.66;100.00;101300.59;4828047;29;20046;-77
2021/06/17 08:45:12;;;;;;;6.18;4.07;;;;;;;26.98;100.00;101296.31;4825878;29;20031;-76
2021/06/17 08:48:05;;;;;;;6.40;3.83;;;;;;;27.08;100.00;101291.06;4827754;29;20038;-76
2021/06/17 08:50:53;;;;;;;5.80;3.90;;;;;;;27.22;100.00;101293.59;4824987;29;20091;-77
2021/06/17 08:53:39;;;;;;;4.32;3.92;;;;;;;27.93;100.00;101285.28;4825875;29;20453;-77
2021/06/17 08:56:26;;;;;;;7.72;3.33;;;;;;;28.46;100.00;101287.16;4827030;29;20066;-77
2021/06/17 08:59:13;;;;;;;7.78;4.18;;;;;;;28.94;100.00;101281.22;4827371;29;20034;-76
2021/06/17 09:02:03;;;;;;;3.78;3.40;;;;;;;28.35;99.95;101279.94;4826153;29;20046;-77
2021/06/17 09:04:49;;;;;;;10.43;4.38;;;;;;;28.55;100.00;101284.56;4827719;29;20124;-76
2021/06/17 09:07:35;;;;;;;5.53;3.38;;;;;;;28.63;98.70;101284.78;4824131;29;20059;-76
2021/06/17 09:10:21;;;;;;;10.18;3.97;;;;;;;28.43;100.00;101285.59;4826181;29;20064;-77
2021/06/17 09:13:09;;;;;;;7.75;3.90;;;;;;;28.57;100.00;101290.69;4825893;29;20479;-75
2021/06/17 09:15:55;;;;;;;5.10;4.18;;;;;;;28.66;99.82;101292.63;4827216;29;20038;-75
2021/06/17 09:18:43;;;;;;;9.70;4.28;;;;;;;29.35;100.00;101296.59;4827459;29;20038;-75
2021/06/17 09:21:29;;;;;;;7.68;3.97;;;;;;;29.65;100.00;101315.59;4824589;29;20038;-74
2021/06/17 09:24:14;;;;;;;6.50;4.90;;;;;;;29.59;100.00;101316.13;4826977;29;20042;-75
2021/06/17 09:27:22;;;;;;;8.68;5.10;;;;;;;28.27;100.00;101313.88;4826889;29;20038;-75
2021/06/17 09:30:11;;;;;;;6.68;4.43;;;;;;;28.14;100.00;101305.94;4826971;29;20034;-75
2021/06/17 09:33:04;;;;;;;8.38;4.70;;;;;;;27.99;100.00;101312.56;4826027;29;20037;-75
2021/06/17 09:35:52;;;;;;;7.68;4.60;;;;;;;28.33;100.00;101308.84;4827364;29;20100;-75
2021/06/17 09:38:44;;;;;;;20.17;5.60;;;;;;;28.41;100.00;101306.41;4826429;29;20030;-75
2021/06/17 09:41:35;;;;;;;6.45;4.20;;;;;;;26.99;100.00;101302.53;4825798;29;20030;-75
2021/06/17 09:44:39;;;;;;;5.68;4.20;;;;;;;26.97;100.00;101297.28;4826225;29;20041;-75
2021/06/17 09:47:32;;;;;;;6.80;4.40;;;;;;;27.08;100.00;101280.31;4825129;29;20113;-75
2021/06/17 09:50:28;;;;;;;16.88;5.68;;;;;;;27.78;100.00;101284.63;4824453;29;20103;-75
2021/06/17 09:53:26;;;;;;;10.38;5.60;;;;;;;27.53;100.00;101279.47;4825181;29;20038;-76
2021/06/17 09:56:17;;;;;;;8.90;4.70;;;;;;;27.31;100.00;101277.59;4826684;29;20042;-76
2021/06/17 09:59:04;;;;;;;11.13;6.00;;;;;;;27.43;100.00;101278.47;4827186;29;20049;-76
2021/06/17 10:01:54;;;;;;;7.85;4.63;;;;;;;27.37;100.00;101273.59;4826280;29;20026;-75
2021/06/17 10:04:40;;;;;;;7.70;4.65;;;;;;;27.29;100.00;101276.03;4824691;29;20034;-75
2021/06/17 10:07:26;;;;;;;6.50;4.47;;;;;;;27.76;100.00;101273.09;4826309;29;20325;-76
2021/06/17 10:10:14;;;;;;;6.03;3.85;;;;;;;27.82;100.00;101283.44;4825830;29;20050;-76
2021/06/17 10:13:03;;;;;;;9.18;3.88;;;;;;;27.56;100.00;101275.69;4824938;29;20042;-76
2021/06/17 10:15:49;;;;;;;5.30;3.42;;;;;;;27.39;100.00;101274.31;4827026;29;20430;-75
2021/06/17 10:18:36;;;;;;;5.38;3.75;;;;;;;27.68;100.00;101264.78;4829911;29;20038;-76
2021/06/17 10:21:22;;;;;;;3.88;3.45;;;;;;;26.99;100.00;101270.25;4828604;29;20037;-76
2021/06/17 10:24:19;;;;;;;4.72;3.35;;;;;;;27.56;100.00;101262.22;4829664;29;20034;-76
2021/06/17 10:27:12;;;;;;;4.95;3.80;;;;;;;27.92;100.00;101254.75;4827641;29;20030;-76
2021/06/17 10:29:58;;;;;;;3.58;2.90;;;;;;;27.60;99.86;101256.44;4830533;29;20369;-77
2021/06/17 10:32:45;;;;;;;8.00;3.13;;;;;;;27.63;99.13;101248.13;4828276;29;20042;-77
2021/06/17 10:35:31;;;;;;;10.30;3.15;;;;;;;27.67;100.00;101240.66;4830392;29;20428;-75
2021/06/17 10:38:17;;;;;;;3.05;2.70;;;;;;;27.00;97.13;101237.00;4828054;29;20499;-77
2021/06/17 10:41:03;;;;;;;2.90;2.70;;;;;;;27.03;100.00;101228.69;4829828;29;20031;-76
2021/06/17 10:43:49;;;;;;;4.57;3.40;;;;;;;27.07;100.00;101241.81;4827716;29;20049;-75
2021/06/17 10:46:43;;;;;;;9.52;3.58;;;;;;;27.42;100.00;101226.50;4829874;29;20041;-75
2021/06/17 10:49:57;;;;;;;7.05;3.47;;;;;;;27.12;100.00;101227.97;4827980;29;20035;-75
2021/06/17 10:52:43;;;;;;;5.85;3.33;;;;;;;27.02;100.00;101227.00;4828562;29;20033;-75
2021/06/17 10:55:29;;;;;;;8.02;3.53;;;;;;;27.21;100.00;101228.16;4829537;29;20121;-74
2021/06/17 10:58:15;;;;;;;5.15;3.70;;;;;;;27.18;100.00;101230.22;4829663;29;20045;-75
2021/06/17 11:01:00;;;;;;;4.82;3.92;;;;;;;27.05;100.00;101234.84;4826627;29;20096;-75
2021/06/17 11:04:03;;;;;;;6.93;3.78;;;;;;;27.50;100.00;101225.88;4828289;29;20368;-75
2021/06/17 11:06:52;;;;;;;4.18;3.60;;;;;;;27.12;100.00;101234.22;4829348;29;20095;-75
2021/06/17 11:09:46;;;;;;;4.10;3.60;;;;;;;26.93;100.00;101233.09;4827193;29;20030;-74
2021/06/17 11:12:34;;;;;;;6.00;3.55;;;;;;;27.34;100.00;101236.13;4827805;29;20051;-76
2021/06/17 11:15:37;;;;;;;6.78;3.80;;;;;;;27.64;100.00;101238.25;4826828;29;20342;-76
2021/06/17 11:18:41;;;;;;;3.83;3.42;;;;;;;27.58;100.00;101235.03;4827121;29;20117;-76
2021/06/17 11:21:33;;;;;;;7.85;3.47;;;;;;;27.91;100.00;101238.72;4826820;29;20031;-75
2021/06/17 11:24:25;;;;;;;5.25;3.65;;;;;;;28.76;100.00;101233.38;4827096;29;20034;-76
2021/06/17 11:27:28;;;;;;;5.70;3.33;;;;;;;28.69;100.00;101240.28;4826831;29;20037;-76
2021/06/17 11:30:15;;;;;;;5.50;3.60;;;;;;;27.75;100.00;101257.06;4829321;29;20069;-76
2021/06/17 11:33:19;;;;;;;4.80;3.40;;;;;;;28.51;100.00;101248.06;4827651;29;20042;-75
2021/06/17 11:36:06;;;;;;;3.45;3.05;;;;;;;27.40;100.00;101251.78;4828548;29;20460;-75
2021/06/17 11:39:01;;;;;;;5.72;3.13;;;;;;;28.34;100.00;101256.66;4826670;29;20421;-75
2021/06/17 11:41:47;;;;;;;8.02;3.45;;;;;;;28.63;100.00;101260.50;4828366;29;20030;-76
2021/06/17 11:44:33;;;;;;;9.52;3.80;;;;;;;29.03;100.00;101258.88;4827458;29;20471;-76
2021/06/17 11:47:18;;;;;;;5.05;4.25;;;;;;;29.10;100.00;101260.09;4825657;29;20034;-76
2021/06/17 13:45:48;;;;;;;10.57;3.25;;;;;;;29.13;89.17;101205.81;4934928;23;20045;-75
2021/06/17 13:48:35;;;;;;;5.75;2.53;;;;;;;29.14;86.46;101215.66;4843835;29;20042;-75
2021/06/17 13:51:21;;;;;;;5.10;2.60;;;;;;;29.47;86.04;101212.69;4844539;29;20033;-75
2021/06/17 13:54:07;;;;;;;3.17;2.53;;;;;;;29.18;86.67;101211.69;4843419;29;20048;-75
2021/06/17 13:57:01;;;;;;;2.50;2.30;;;;;;;29.47;85.53;101211.81;4844604;29;20038;-75
2021/06/17 13:59:47;;;;;;;3.92;2.20;;;;;;;28.74;83.27;101219.16;4845635;29;20074;-75
2021/06/17 14:02:32;;;;;;;5.45;2.75;;;;;;;28.45;88.30;101218.88;4844602;29;20034;-75
2021/06/17 14:05:18;;;;;;;6.07;2.35;;;;;;;28.28;84.79;101222.13;4844154;29;20081;-76
2021/06/17 14:08:05;;;;;;;3.63;2.30;;;;;;;28.33;89.07;101221.75;4844789;29;20062;-75
2021/06/17 14:10:53;;;;;;;2.20;2.00;;;;;;;28.37;86.44;101215.13;4844090;29;20102;-76
2021/06/17 14:13:39;;;;;;;2.17;2.00;;;;;;;28.29;89.49;101218.44;4843952;29;20511;-75
2021/06/17 14:16:25;;;;;;;4.15;2.20;;;;;;;28.47;90.37;101221.47;4844964;29;20374;-76
2021/06/17 14:19:14;;;;;;;3.20;2.30;;;;;;;29.10;90.36;101216.91;4843685;29;20112;-75
2021/06/17 14:22:03;;;;;;;13.90;3.15;;;;;;;29.15;93.23;101222.75;4845112;29;20110;-76
2021/06/17 14:24:49;;;;;;;3.47;3.05;;;;;;;29.21;95.15;101227.59;4844119;29;20106;-76
2021/06/17 14:27:35;;;;;;;2.58;2.35;;;;;;;28.49;97.91;101233.00;4844676;29;20048;-77
2021/06/17 14:30:25;;;;;;;4.43;2.47;;;;;;;28.76;95.28;101227.97;4845280;29;20352;-77
2021/06/17 14:33:11;;;;;;;2.85;2.10;;;;;;;28.82;92.78;101225.63;4842391;29;20455;-76
2021/06/17 14:35:57;;;;;;;3.92;2.65;;;;;;;28.40;92.87;101231.03;4844365;29;20029;-75
2021/06/17 14:38:44;;;;;;;3.13;2.70;;;;;;;28.98;94.08;101225.16;4842074;29;20049;-75
2021/06/17 14:41:30;;;;;;;4.20;2.65;;;;;;;28.81;94.70;101231.97;4843814;29;20026;-76
2021/06/17 14:44:16;;;;;;;5.22;3.00;;;;;;;28.24;98.33;101244.91;4842094;29;20050;-75
2021/06/17 14:47:02;;;;;;;6.60;2.75;;;;;;;28.07;99.82;101250.84;4843753;29;20353;-75
2021/06/17 14:49:48;;;;;;;16.17;4.40;;;;;;;28.25;100.00;101248.47;4842598;29;20044;-75
2021/06/17 14:52:34;;;;;;;24.77;3.60;;;;;;;28.57;100.00;101244.00;4844619;29;20137;-76
2021/06/17 14:55:20;;;;;;;4.65;2.53;;;;;;;27.97;100.00;101249.88;4842622;29;20034;-75
2021/06/17 14:58:06;;;;;;;5.30;2.88;;;;;;;28.18;100.00;101241.88;4842694;29;20070;-75
2021/06/17 15:00:52;;;;;;;10.50;3.60;;;;;;;27.64;100.00;101240.94;4847966;29;20146;-75
2021/06/17 15:03:37;;;;;;;3.10;2.80;;;;;;;26.64;100.00;101242.53;4846801;29;20021;-76
2021/06/17 15:06:23;;;;;;;4.45;2.85;;;;;;;26.05;100.00;101252.31;4846581;29;20061;-76
2021/06/17 15:09:10;;;;;;;5.25;2.92;;;;;;;26.33;100.00;101245.75;4846784;29;20034;-75